Time;durP1;ratioP1;P1;durP2;ratioP2;P2;SDS_P1;SDS_P2;PMS_P1;PMS_P2;Temp;Humidity;BMP_temperature;BMP_pressure;BME280_temperature;BME280_humidity;BME280_pressure;Samples;Min_cycle;Max_cycle;Signal;HPM_P1;HPM_P2
2022/08/28 00:00:41;;;;;;;4.00;2.63;;;20.80;62.10;;;;;;5079165;28;20083;-85
2022/08/28 00:03:09;;;;;;;5.22;2.88;;;20.80;62.00;;;;;;5077008;28;20031;-86
2022/08/28 00:05:35;;;;;;;3.38;2.42;;;20.80;62.10;;;;;;5083195;28;20089;-85
2022/08/28 00:08:01;;;;;;;5.05;2.67;;;20.70;62.10;;;;;;5079514;28;20024;-86
2022/08/28 00:10:29;;;;;;;4.85;2.92;;;20.80;62.10;;;;;;5096484;28;20043;-85
2022/08/28 00:12:56;;;;;;;4.15;2.55;;;20.80;62.30;;;;;;5097454;28;20028;-85
2022/08/28 00:15:27;;;;;;;4.57;3.05;;;20.70;62.40;;;;;;5078867;28;20073;-85
2022/08/28 00:17:53;;;;;;;4.22;2.65;;;20.70;62.60;;;;;;5078261;28;20028;-85
2022/08/28 00:20:19;;;;;;;4.85;2.70;;;20.70;62.40;;;;;;5096577;28;20100;-85
2022/08/28 00:22:45;;;;;;;4.80;2.80;;;20.60;62.80;;;;;;5079135;28;20016;-86
2022/08/28 00:25:13;;;;;;;3.97;2.83;;;20.60;62.70;;;;;;5096595;28;20103;-85
2022/08/28 00:27:51;;;;;;;4.10;2.20;;;20.60;62.70;;;;;;5097237;28;20165;-85
2022/08/28 00:30:23;;;;;;;4.05;2.42;;;20.60;62.60;;;;;;5097379;28;20035;-86
2022/08/28 00:32:50;;;;;;;4.80;2.80;;;20.60;62.50;;;;;;5096428;28;20032;-85
2022/08/28 00:35:16;;;;;;;4.50;2.25;;;20.60;62.60;;;;;;5097005;28;20052;-85
2022/08/28 00:37:43;;;;;;;3.67;2.50;;;20.50;63.00;;;;;;5096878;28;20056;-85
2022/08/28 00:40:12;;;;;;;4.95;3.05;;;20.50;62.90;;;;;;5096167;28;20030;-85
2022/08/28 00:42:37;;;;;;;8.95;3.05;;;20.50;63.00;;;;;;5095876;28;20604;-85
2022/08/28 00:45:05;;;;;;;4.40;2.55;;;20.50;63.00;;;;;;5096484;28;20139;-85
2022/08/28 00:47:31;;;;;;;3.40;2.42;;;20.50;63.10;;;;;;5078284;28;20028;-85
2022/08/28 00:49:56;;;;;;;6.60;3.05;;;20.40;63.10;;;;;;5096261;28;20411;-86
2022/08/28 00:52:24;;;;;;;4.97;2.88;;;20.40;63.40;;;;;;5096767;28;20077;-85
2022/08/28 00:55:02;;;;;;;6.28;2.70;;;20.40;63.30;;;;;;5096047;28;20487;-85
2022/08/28 00:57:47;;;;;;;3.00;2.42;;;20.30;63.60;;;;;;5078515;28;20020;-85
2022/08/28 01:00:20;;;;;;;5.55;2.78;;;20.30;63.80;;;;;;5094602;28;20020;-85
2022/08/28 01:02:56;;;;;;;4.85;2.70;;;20.30;63.80;;;;;;5096564;28;20054;-85
2022/08/28 01:05:21;;;;;;;4.57;2.80;;;20.30;63.70;;;;;;5095326;28;20024;-85
2022/08/28 01:07:49;;;;;;;6.95;2.88;;;20.30;63.80;;;;;;5096390;28;20046;-86
2022/08/28 01:10:17;;;;;;;6.22;2.80;;;20.30;63.80;;;;;;5095303;28;20040;-84
2022/08/28 01:12:44;;;;;;;4.82;3.33;;;20.30;63.80;;;;;;5078389;28;20024;-86
2022/08/28 01:15:13;;;;;;;8.18;3.38;;;20.30;64.00;;;;;;5095509;28;20040;-85
2022/08/28 01:17:46;;;;;;;8.07;3.00;;;20.20;64.10;;;;;;5077416;28;20024;-85
2022/08/28 01:20:16;;;;;;;4.30;2.78;;;20.20;63.90;;;;;;5077804;28;20509;-85
2022/08/28 01:22:57;;;;;;;5.00;2.90;;;20.20;64.00;;;;;;5096102;28;20020;-86
2022/08/28 01:25:39;;;;;;;;;;;;;;;;;;;;;
2022/08/28 01:28:10;;;;;;;3.25;2.38;;;20.20;64.00;;;;;;5095977;28;20028;-86
2022/08/28 01:30:39;;;;;;;3.38;2.70;;;20.20;63.90;;;;;;5078105;28;20056;-86
2022/08/28 01:33:05;;;;;;;3.40;2.28;;;20.20;63.80;;;;;;5095113;28;20907;-86
2022/08/28 01:35:33;;;;;;;3.47;2.70;;;20.20;64.20;;;;;;5096005;28;20020;-85
2022/08/28 01:38:00;;;;;;;4.65;2.72;;;20.00;64.40;;;;;;5094498;28;20060;-86
2022/08/28 01:40:36;;;;;;;5.97;2.70;;;20.00;64.40;;;;;;5096035;28;20098;-84
2022/08/28 01:43:08;;;;;;;5.82;2.42;;;20.00;64.50;;;;;;5095087;28;20467;-86
2022/08/28 01:45:36;;;;;;;3.88;2.30;;;20.00;64.50;;;;;;5095677;28;20070;-85
2022/08/28 01:48:04;;;;;;;5.97;2.33;;;20.00;64.60;;;;;;5095671;28;20484;-85
2022/08/28 01:50:30;;;;;;;5.53;2.88;;;19.90;64.70;;;;;;5071995;28;20089;-86
2022/08/28 01:52:56;;;;;;;6.40;2.80;;;19.90;64.70;;;;;;5094400;28;20054;-86
2022/08/28 01:55:21;;;;;;;5.85;2.97;;;19.90;64.60;;;;;;5076479;28;20566;-87
2022/08/28 01:57:50;;;;;;;7.20;2.53;;;19.90;64.70;;;;;;5095572;28;20055;-86
2022/08/28 02:00:16;;;;;;;4.03;2.72;;;19.80;64.70;;;;;;5095460;28;20031;-87
2022/08/28 02:02:42;;;;;;;3.40;2.55;;;19.90;64.50;;;;;;5094979;28;20115;-87
2022/08/28 02:05:09;;;;;;;3.67;2.60;;;19.90;64.50;;;;;;5077340;28;20051;-85
2022/08/28 02:07:36;;;;;;;4.00;2.58;;;19.80;64.70;;;;;;5095425;28;20085;-86
2022/08/28 02:10:03;;;;;;;3.92;2.38;;;19.70;64.80;;;;;;5076060;28;20052;-86
2022/08/28 02:12:29;;;;;;;3.80;2.25;;;19.80;64.70;;;;;;5095354;28;20028;-85
2022/08/28 02:14:55;;;;;;;3.03;2.00;;;19.80;64.80;;;;;;5076244;28;20116;-86
2022/08/28 02:17:21;;;;;;;6.65;2.88;;;19.80;64.60;;;;;;5094254;28;20502;-86
2022/08/28 02:19:46;;;;;;;5.38;2.47;;;19.80;64.20;;;;;;5095356;28;20016;-86
2022/08/28 02:22:12;;;;;;;3.47;2.25;;;19.80;64.40;;;;;;5094311;28;20032;-85
2022/08/28 02:24:38;;;;;;;4.05;2.30;;;19.70;64.60;;;;;;5077315;28;20024;-86
2022/08/28 02:27:04;;;;;;;3.25;2.42;;;19.70;64.50;;;;;;5095414;28;20105;-85
2022/08/28 02:29:30;;;;;;;6.30;2.58;;;19.70;64.50;;;;;;5094530;28;20024;-87
2022/08/28 02:31:56;;;;;;;3.10;2.47;;;19.70;64.30;;;;;;5095154;28;20054;-86
2022/08/28 02:34:25;;;;;;;5.28;2.03;;;19.70;64.40;;;;;;5093519;28;20028;-85
2022/08/28 02:36:50;;;;;;;3.60;2.17;;;19.60;64.40;;;;;;5080081;28;20024;-85
2022/08/28 02:39:16;;;;;;;2.83;2.47;;;19.60;64.60;;;;;;5099628;28;20077;-85
2022/08/28 02:41:42;;;;;;;3.20;2.65;;;19.60;64.50;;;;;;5098245;28;20039;-85
2022/08/28 02:44:08;;;;;;;3.15;2.40;;;19.50;64.50;;;;;;5081108;28;20030;-85
2022/08/28 02:46:33;;;;;;;4.30;2.47;;;19.60;64.60;;;;;;5098927;28;20515;-86
2022/08/28 02:48:59;;;;;;;2.67;2.05;;;19.50;64.60;;;;;;5097966;28;20422;-85
2022/08/28 02:51:32;;;;;;;4.32;2.35;;;19.50;64.50;;;;;;5098355;28;20031;-85
2022/08/28 02:53:58;;;;;;;4.38;2.10;;;19.50;64.60;;;;;;5080656;28;20052;-86
2022/08/28 02:56:24;;;;;;;4.18;2.80;;;19.50;64.60;;;;;;5099003;28;20510;-86
2022/08/28 02:58:50;;;;;;;5.88;2.47;;;19.40;64.50;;;;;;5079742;28;20024;-86
2022/08/28 03:01:15;;;;;;;4.00;2.53;;;19.40;64.60;;;;;;5080729;28;20039;-86
2022/08/28 03:03:41;;;;;;;4.32;2.38;;;19.40;64.60;;;;;;5080507;28;20155;-86
2022/08/28 03:06:11;;;;;;;6.18;2.78;;;19.30;64.90;;;;;;5079336;28;20092;-86
2022/08/28 03:08:37;;;;;;;2.87;2.00;;;19.30;65.10;;;;;;5080843;28;20103;-86
2022/08/28 03:11:03;;;;;;;3.97;2.33;;;19.20;65.40;;;;;;5097223;28;20316;-86
2022/08/28 03:13:29;;;;;;;4.38;2.40;;;19.20;65.50;;;;;;5097727;28;20483;-86
2022/08/28 03:15:55;;;;;;;2.95;2.47;;;19.20;65.40;;;;;;5098434;28;20086;-85
2022/08/28 03:18:21;;;;;;;5.88;2.58;;;19.20;65.50;;;;;;5098576;28;20028;-86
2022/08/28 03:20:47;;;;;;;5.13;2.15;;;19.10;65.50;;;;;;5097520;28;20039;-85
2022/08/28 03:23:25;;;;;;;4.90;2.20;;;19.10;65.60;;;;;;5098588;28;20024;-85
2022/08/28 03:25:57;;;;;;;4.15;2.15;;;19.10;65.60;;;;;;5098497;28;20078;-85
2022/08/28 03:28:25;;;;;;;6.03;2.20;;;19.10;65.80;;;;;;5097525;28;20099;-85
2022/08/28 03:30:55;;;;;;;4.28;2.80;;;19.10;65.60;;;;;;5097124;28;20023;-85
2022/08/28 03:33:21;;;;;;;3.70;2.08;;;19.10;65.80;;;;;;5098256;28;20032;-85
2022/08/28 03:35:47;;;;;;;3.50;2.00;;;19.00;65.60;;;;;;5098449;28;20036;-86
2022/08/28 03:38:12;;;;;;;4.78;2.67;;;19.00;65.90;;;;;;5079939;28;20495;-85
2022/08/28 03:40:41;;;;;;;3.33;1.90;;;19.00;65.80;;;;;;5078772;28;20495;-85
2022/08/28 03:43:10;;;;;;;3.50;2.08;;;18.90;66.20;;;;;;5096943;28;20095;-85
2022/08/28 03:45:35;;;;;;;5.35;2.42;;;18.90;65.90;;;;;;5080054;28;20032;-85
2022/08/28 03:48:02;;;;;;;3.90;2.20;;;18.90;66.20;;;;;;5095814;28;20020;-85
2022/08/28 03:50:28;;;;;;;7.50;2.75;;;18.90;66.30;;;;;;5079634;28;20047;-85
2022/08/28 03:52:54;;;;;;;4.68;2.00;;;18.80;66.50;;;;;;5079932;28;20024;-85
2022/08/28 03:55:21;;;;;;;4.18;2.28;;;18.70;66.60;;;;;;5097827;28;20051;-85
2022/08/28 03:57:47;;;;;;;3.72;2.05;;;18.70;66.60;;;;;;5078553;28;20020;-85
2022/08/28 04:00:13;;;;;;;4.72;1.92;;;18.70;66.70;;;;;;5079580;28;20066;-86
2022/08/28 04:02:43;;;;;;;3.13;1.90;;;18.70;66.60;;;;;;5078850;28;20537;-85
2022/08/28 04:05:09;;;;;;;3.47;2.43;;;18.70;66.60;;;;;;5096789;28;20113;-85
2022/08/28 04:07:36;;;;;;;3.28;2.15;;;18.70;66.60;;;;;;5096601;28;20840;-85
2022/08/28 04:10:03;;;;;;;3.08;2.38;;;18.60;66.60;;;;;;5097510;28;20036;-85
2022/08/28 04:12:28;;;;;;;4.82;2.20;;;18.60;66.70;;;;;;5097507;28;20028;-85
2022/08/28 04:14:54;;;;;;;4.18;2.42;;;18.60;67.10;;;;;;5096162;28;20684;-85
2022/08/28 04:17:20;;;;;;;4.00;2.10;;;18.50;67.10;;;;;;5097306;28;20581;-85
2022/08/28 04:19:45;;;;;;;2.35;1.75;;;18.50;67.30;;;;;;5096255;28;20020;-85
2022/08/28 04:22:13;;;;;;;4.63;2.10;;;18.50;66.80;;;;;;5096736;28;20035;-85
2022/08/28 04:24:39;;;;;;;4.63;2.33;;;18.40;67.10;;;;;;5079413;28;20403;-85
2022/08/28 04:27:05;;;;;;;4.68;2.60;;;18.40;67.20;;;;;;5097272;28;20024;-85
2022/08/28 04:29:30;;;;;;;3.22;2.30;;;18.40;67.10;;;;;;5096071;28;20557;-85
2022/08/28 04:31:57;;;;;;;3.45;2.65;;;18.40;67.10;;;;;;5079089;28;20032;-85
2022/08/28 04:34:23;;;;;;;2.90;2.13;;;18.40;67.10;;;;;;5078928;28;20180;-85
2022/08/28 04:36:52;;;;;;;5.25;2.63;;;18.40;67.10;;;;;;5095866;28;20036;-85
2022/08/28 04:39:18;;;;;;;6.20;2.70;;;18.40;66.90;;;;;;5096965;28;20024;-85
2022/08/28 04:41:44;;;;;;;3.83;2.33;;;18.40;67.10;;;;;;5078275;28;20597;-85
2022/08/28 04:44:10;;;;;;;4.07;2.08;;;18.30;67.00;;;;;;5096220;28;20035;-85
2022/08/28 04:46:36;;;;;;;4.55;2.42;;;18.30;66.80;;;;;;5096812;28;20085;-85
2022/08/28 04:49:03;;;;;;;4.22;2.13;;;18.30;67.10;;;;;;5096916;28;20058;-85
2022/08/28 04:51:29;;;;;;;3.78;2.63;;;18.30;67.10;;;;;;5096031;28;20085;-85
2022/08/28 04:53:56;;;;;;;5.90;2.50;;;18.30;67.30;;;;;;5096527;28;20028;-85
2022/08/28 04:56:22;;;;;;;3.63;2.35;;;18.30;67.20;;;;;;5077493;28;20391;-85
2022/08/28 04:58:47;;;;;;;5.90;3.08;;;18.30;67.20;;;;;;5095639;28;20036;-85
2022/08/28 05:01:19;;;;;;;3.75;2.70;;;18.30;67.30;;;;;;5094982;28;20032;-85
2022/08/28 05:03:47;;;;;;;2.67;2.22;;;18.30;67.20;;;;;;5093779;28;20024;-84
2022/08/28 05:06:15;;;;;;;3.50;2.20;;;18.20;67.30;;;;;;5096186;28;20050;-85
2022/08/28 05:08:41;;;;;;;3.65;2.25;;;18.20;67.40;;;;;;5094987;28;20084;-85
2022/08/28 05:11:17;;;;;;;3.70;2.15;;;18.20;67.50;;;;;;5096304;28;20012;-84
2022/08/28 05:13:43;;;;;;;4.15;2.03;;;18.20;67.60;;;;;;5077803;28;20055;-84
2022/08/28 05:16:08;;;;;;;8.52;2.53;;;18.20;67.50;;;;;;5077749;28;20085;-84
2022/08/28 05:18:34;;;;;;;2.90;2.42;;;18.30;67.40;;;;;;5095847;28;20463;-84
2022/08/28 05:21:01;;;;;;;5.25;2.53;;;18.20;67.30;;;;;;5096046;28;20053;-85
2022/08/28 05:23:27;;;;;;;4.95;1.73;;;18.30;67.30;;;;;;5076576;28;20608;-85
2022/08/28 05:25:52;;;;;;;4.38;2.00;;;18.30;67.30;;;;;;5095602;28;20094;-87
2022/08/28 05:28:18;;;;;;;3.08;2.30;;;18.20;67.30;;;;;;5095976;28;20449;-86
2022/08/28 05:30:44;;;;;;;4.50;2.13;;;18.20;67.40;;;;;;5077824;28;20373;-86
2022/08/28 05:33:13;;;;;;;4.38;2.50;;;18.20;67.50;;;;;;5095281;28;20043;-86
2022/08/28 05:35:41;;;;;;;3.53;1.98;;;18.20;67.50;;;;;;5077777;28;20115;-85
2022/08/28 05:38:07;;;;;;;5.85;2.17;;;18.20;67.60;;;;;;5095550;28;20633;-82
2022/08/28 05:40:38;;;;;;;3.65;2.28;;;18.20;67.40;;;;;;5077718;28;20165;-86
2022/08/28 05:43:04;;;;;;;3.03;2.00;;;18.20;67.80;;;;;;5072668;28;20025;-86
2022/08/28 05:45:30;;;;;;;2.90;1.83;;;18.20;67.70;;;;;;5066375;28;20034;-87
2022/08/28 05:47:56;;;;;;;3.53;1.90;;;18.20;67.90;;;;;;5095658;28;20024;-85
2022/08/28 05:50:22;;;;;;;3.28;2.03;;;18.30;67.50;;;;;;5095688;28;20043;-87
2022/08/28 05:52:47;;;;;;;3.47;2.10;;;18.30;67.50;;;;;;5095440;28;20036;-85
2022/08/28 05:55:13;;;;;;;6.00;2.13;;;18.30;67.30;;;;;;5076974;28;20024;-88
2022/08/28 05:57:40;;;;;;;4.93;1.95;;;18.30;67.50;;;;;;5095920;28;20558;-87
2022/08/28 06:00:12;;;;;;;4.75;1.95;;;18.30;67.60;;;;;;5084943;28;20059;-85
2022/08/28 06:02:43;;;;;;;6.28;2.42;;;18.30;67.50;;;;;;5081377;28;20024;-86
2022/08/28 06:05:08;;;;;;;5.72;2.35;;;18.30;67.30;;;;;;5064596;28;20053;-88
2022/08/28 06:07:34;;;;;;;6.70;2.50;;;18.30;67.30;;;;;;5093776;28;20032;-84
2022/08/28 06:10:00;;;;;;;3.55;2.30;;;18.40;67.30;;;;;;5076697;28;20028;-86
2022/08/28 06:12:26;;;;;;;4.80;1.92;;;18.30;67.20;;;;;;5070525;28;20066;-86
2022/08/28 06:14:52;;;;;;;4.38;2.47;;;18.40;67.20;;;;;;5067776;28;20062;-83
2022/08/28 06:17:18;;;;;;;4.43;2.03;;;18.40;67.30;;;;;;5069662;28;20036;-84
2022/08/28 06:19:44;;;;;;;3.63;2.03;;;18.30;67.40;;;;;;5085842;28;20448;-88
2022/08/28 06:22:13;;;;;;;2.78;2.17;;;18.40;67.30;;;;;;5064329;28;20024;-89
2022/08/28 06:24:39;;;;;;;4.22;2.10;;;18.40;67.30;;;;;;5082030;28;20079;-83
2022/08/28 06:27:05;;;;;;;2.95;1.92;;;18.40;67.40;;;;;;5086625;28;20036;-86
2022/08/28 06:29:31;;;;;;;3.40;2.08;;;18.40;67.40;;;;;;5094008;28;20067;-85
2022/08/28 06:32:00;;;;;;;3.88;2.17;;;18.40;67.50;;;;;;5093910;28;20449;-87
2022/08/28 06:34:27;;;;;;;4.07;1.75;;;18.50;67.70;;;;;;5092765;28;20027;-87
2022/08/28 06:36:53;;;;;;;3.22;1.88;;;18.50;67.90;;;;;;5077293;28;20035;-87
2022/08/28 06:39:19;;;;;;;5.68;2.17;;;18.50;67.40;;;;;;5076845;28;20043;-87
2022/08/28 06:41:52;;;;;;;3.53;2.25;;;18.60;67.20;;;;;;5095813;28;20028;-84
2022/08/28 06:44:21;;;;;;;5.00;1.90;;;18.50;67.70;;;;;;5076640;28;20521;-85
2022/08/28 06:46:49;;;;;;;4.05;2.00;;;18.60;67.60;;;;;;5070211;28;20043;-84
2022/08/28 06:49:14;;;;;;;5.65;2.55;;;18.60;67.60;;;;;;5066800;28;20107;-83
2022/08/28 06:51:40;;;;;;;3.53;1.75;;;18.60;67.50;;;;;;5083559;28;20056;-81
2022/08/28 06:54:06;;;;;;;4.93;2.30;;;18.60;67.20;;;;;;5086207;28;20028;-83
2022/08/28 06:56:32;;;;;;;2.95;1.55;;;18.70;67.30;;;;;;5070243;28;20117;-83
2022/08/28 06:58:58;;;;;;;3.25;2.00;;;18.70;66.90;;;;;;5057267;28;20029;-85
2022/08/28 07:01:30;;;;;;;4.28;2.10;;;18.80;66.90;;;;;;5070964;28;20029;-85
2022/08/28 07:03:59;;;;;;;3.72;2.10;;;18.80;66.90;;;;;;5083230;28;20028;-83
2022/08/28 07:06:26;;;;;;;5.18;2.08;;;18.80;66.40;;;;;;5070486;28;20197;-82
2022/08/28 07:08:52;;;;;;;5.30;1.90;;;18.90;66.80;;;;;;5070605;28;20024;-83
2022/08/28 07:11:24;;;;;;;3.75;2.33;;;18.80;66.90;;;;;;5091020;28;20028;-79
2022/08/28 07:13:54;;;;;;;5.15;2.25;;;18.90;67.10;;;;;;5063111;28;20049;-85
2022/08/28 07:16:22;;;;;;;5.28;2.33;;;19.00;66.60;;;;;;5067625;28;20028;-84
2022/08/28 07:18:48;;;;;;;2.88;1.75;;;19.00;66.50;;;;;;5056291;28;20056;-87
2022/08/28 07:21:14;;;;;;;3.42;1.95;;;19.10;66.90;;;;;;5065077;28;20050;-82
2022/08/28 07:23:41;;;;;;;2.85;1.83;;;19.20;66.30;;;;;;5097010;28;20028;-84
2022/08/28 07:26:10;;;;;;;3.10;2.10;;;19.30;66.10;;;;;;5088440;28;20035;-84
2022/08/28 07:28:36;;;;;;;4.13;1.90;;;19.30;65.80;;;;;;5081929;28;20076;-84
2022/08/28 07:31:12;;;;;;;4.60;1.73;;;19.40;65.60;;;;;;5094721;28;20435;-84
2022/08/28 07:33:38;;;;;;;2.55;1.60;;;19.40;65.60;;;;;;5078413;28;20028;-85
2022/08/28 07:36:09;;;;;;;4.32;1.85;;;19.50;65.60;;;;;;5096003;28;20032;-84
2022/08/28 07:38:35;;;;;;;3.20;1.63;;;19.70;64.80;;;;;;5078474;28;20062;-84
2022/08/28 07:41:02;;;;;;;4.28;1.50;;;19.80;64.60;;;;;;5097175;28;20028;-85
2022/08/28 07:46:12;;;;;;;3.40;1.70;;;20.00;63.50;;;;;;5098042;28;20085;-85
2022/08/28 07:48:39;;;;;;;5.05;1.95;;;20.10;63.80;;;;;;5079437;28;20040;-84
2022/08/28 07:51:06;;;;;;;3.38;2.35;;;20.30;63.00;;;;;;5097633;28;20043;-85
2022/08/28 07:53:32;;;;;;;6.28;2.35;;;20.50;62.40;;;;;;5078961;28;20024;-85
2022/08/28 07:55:58;;;;;;;2.67;1.85;;;20.90;61.40;;;;;;5094021;28;20039;-85
2022/08/28 07:58:24;;;;;;;2.63;1.77;;;21.90;59.20;;;;;;5085743;28;20024;-85
2022/08/28 08:00:54;;;;;;;3.10;1.55;;;23.90;54.30;;;;;;5068047;28;20028;-87
2022/08/28 08:03:21;;;;;;;5.78;1.55;;;25.20;50.90;;;;;;5066381;28;20482;-84
2022/08/28 08:05:54;;;;;;;4.30;1.60;;;26.00;48.30;;;;;;5060750;28;20133;-84
2022/08/28 08:08:20;;;;;;;2.40;1.40;;;26.80;46.60;;;;;;5089006;28;20145;-83
2022/08/28 08:10:56;;;;;;;4.13;1.60;;;27.30;44.50;;;;;;5079951;28;20494;-85
2022/08/28 08:13:22;;;;;;;5.38;2.05;;;27.80;42.90;;;;;;5082625;28;20024;-86
2022/08/28 08:15:47;;;;;;;2.55;1.50;;;28.10;42.20;;;;;;5093765;28;20036;-85
2022/08/28 08:18:13;;;;;;;4.93;1.83;;;28.50;42.60;;;;;;5086060;28;20095;-84
2022/08/28 08:20:38;;;;;;;4.65;1.10;;;28.90;41.90;;;;;;5094028;28;20032;-84
2022/08/28 08:23:04;;;;;;;2.63;1.00;;;28.90;41.60;;;;;;5071872;28;20021;-88
2022/08/28 08:25:30;;;;;;;2.50;1.20;;;28.50;41.70;;;;;;5063278;28;20479;-84
2022/08/28 08:27:56;;;;;;;6.07;1.70;;;27.80;42.00;;;;;;5081469;28;20024;-84
2022/08/28 08:30:21;;;;;;;4.55;1.38;;;27.30;43.60;;;;;;5086945;28;20472;-84
2022/08/28 08:32:47;;;;;;;5.32;1.30;;;27.10;44.90;;;;;;5082685;28;20028;-81
2022/08/28 08:35:13;;;;;;;3.30;1.40;;;26.60;44.10;;;;;;5089253;28;20062;-80
2022/08/28 08:37:38;;;;;;;3.40;1.48;;;26.00;45.30;;;;;;5095681;28;20016;-83
2022/08/28 08:40:04;;;;;;;4.75;1.40;;;25.90;46.50;;;;;;5081883;28;20032;-80
2022/08/28 08:42:32;;;;;;;6.47;1.95;;;25.90;47.00;;;;;;5069148;28;20028;-82
2022/08/28 08:45:02;;;;;;;2.20;1.58;;;26.00;46.80;;;;;;5092472;28;20032;-80
2022/08/28 08:47:42;;;;;;;1.92;1.20;;;26.20;46.80;;;;;;5059815;28;20034;-83
2022/08/28 08:50:19;;;;;;;;;;;26.40;45.50;;;;;;5095979;28;20460;-83
2022/08/28 08:53:12;;;;;;;4.15;1.13;;;26.40;45.30;;;;;;5094919;28;20331;-81
2022/08/28 08:55:56;;;;;;;2.35;1.25;;;26.20;46.00;;;;;;5080585;28;20032;-78
2022/08/28 08:58:46;;;;;;;3.90;1.50;;;25.90;46.60;;;;;;5065998;28;20046;-78
2022/08/28 09:01:47;;;;;;;3.85;1.70;;;25.50;46.50;;;;;;5073776;28;20630;-77
2022/08/28 09:04:41;;;;;;;5.03;1.48;;;25.30;48.00;;;;;;5082518;28;20029;-77
2022/08/28 09:07:18;;;;;;;2.28;1.40;;;25.00;48.70;;;;;;5078310;28;20028;-77
2022/08/28 09:09:51;;;;;;;3.05;1.60;;;24.70;47.60;;;;;;5065074;28;20028;-77
2022/08/28 09:12:24;;;;;;;5.78;1.55;;;24.70;48.80;;;;;;5094186;28;20103;-76
2022/08/28 09:15:09;;;;;;;1.98;1.25;;;25.00;48.80;;;;;;5069684;28;20045;-77
2022/08/28 09:17:44;;;;;;;2.53;1.40;;;25.80;47.10;;;;;;5075786;28;20027;-77
2022/08/28 09:20:13;;;;;;;2.67;1.10;;;26.30;46.40;;;;;;5078542;28;20123;-77
2022/08/28 09:22:44;;;;;;;2.17;1.38;;;26.80;45.90;;;;;;5076258;28;20028;-77
2022/08/28 09:25:12;;;;;;;2.15;1.35;;;28.00;43.70;;;;;;5096231;28;20043;-77
2022/08/28 09:27:51;;;;;;;5.88;1.60;;;29.70;40.10;;;;;;5095634;28;20099;-77
2022/08/28 09:30:27;;;;;;;;;;;30.60;37.00;;;;;;5074272;28;20078;-77
2022/08/28 09:33:00;;;;;;;3.10;1.20;;;31.30;35.70;;;;;;5082660;28;20019;-78
2022/08/28 09:35:30;;;;;;;3.22;1.27;;;30.40;35.70;;;;;;5095081;28;20487;-77
2022/08/28 09:38:19;;;;;;;2.65;1.27;;;30.70;37.10;;;;;;5089297;28;20085;-75
2022/08/28 09:43:32;;;;;;;2.33;1.38;;;31.20;36.00;;;;;;5077459;28;20082;-74
2022/08/28 09:46:15;;;;;;;2.75;1.33;;;31.80;35.10;;;;;;5076354;28;20058;-75
2022/08/28 09:48:43;;;;;;;3.00;1.38;;;32.10;33.70;;;;;;5086945;28;20132;-77
2022/08/28 09:51:26;;;;;;;2.60;1.27;;;31.80;34.20;;;;;;5060175;28;20067;-77
2022/08/28 09:53:53;;;;;;;3.90;1.20;;;32.50;33.40;;;;;;5085624;28;20024;-77
2022/08/28 09:56:32;;;;;;;4.00;1.50;;;33.10;31.80;;;;;;5091118;28;20112;-78
2022/08/28 09:59:06;;;;;;;3.38;1.33;;;32.90;31.30;;;;;;5071735;28;20088;-77
2022/08/28 10:01:40;;;;;;;3.30;1.10;;;32.80;32.70;;;;;;5084016;28;20020;-77
2022/08/28 10:04:28;;;;;;;3.00;1.38;;;33.00;33.10;;;;;;5060959;28;20048;-77
2022/08/28 10:07:15;;;;;;;3.60;1.50;;;32.90;31.10;;;;;;5064102;28;20111;-82
2022/08/28 10:09:40;;;;;;;2.75;1.40;;;32.60;31.40;;;;;;5083912;28;20487;-84
2022/08/28 10:12:13;;;;;;;3.10;1.30;;;32.80;31.70;;;;;;5087805;28;20095;-85
2022/08/28 10:15:05;;;;;;;3.88;1.58;;;33.40;31.30;;;;;;5058661;28;20053;-83
2022/08/28 10:18:11;;;;;;;3.05;1.30;;;33.30;30.20;;;;;;5043477;28;20378;-85
2022/08/28 10:21:09;;;;;;;2.75;1.10;;;33.40;31.00;;;;;;5051830;28;20037;-84
2022/08/28 10:24:04;;;;;;;4.63;1.25;;;33.30;30.70;;;;;;5049308;28;20112;-80
2022/08/28 10:26:59;;;;;;;2.95;1.27;;;32.30;31.40;;;;;;5044812;28;20029;-81
2022/08/28 10:29:52;;;;;;;5.03;1.17;;;31.30;34.40;;;;;;5043077;28;20114;-83
2022/08/28 10:32:46;;;;;;;3.10;1.20;;;30.40;35.00;;;;;;5048650;28;20037;-85
2022/08/28 10:35:59;;;;;;;3.00;1.38;;;29.80;36.60;;;;;;5033753;28;20089;-86
2022/08/28 10:38:48;;;;;;;3.47;1.33;;;29.30;37.70;;;;;;5017237;28;20080;-89
2022/08/28 10:41:45;;;;;;;2.60;1.30;;;29.30;37.60;;;;;;5048739;28;20086;-81
2022/08/28 10:44:14;;;;;;;3.42;1.45;;;29.20;38.50;;;;;;5048507;28;20040;-83
2022/08/28 10:46:50;;;;;;;3.63;1.65;;;29.00;38.10;;;;;;5050199;28;20588;-84
2022/08/28 10:49:34;;;;;;;3.42;1.33;;;28.90;38.60;;;;;;5042227;28;20035;-85
2022/08/28 10:52:40;;;;;;;2.92;1.38;;;28.70;36.80;;;;;;5046192;28;20014;-87
2022/08/28 10:55:09;;;;;;;2.83;1.13;;;28.50;39.00;;;;;;5045711;28;20420;-91
2022/08/28 10:57:50;;;;;;;2.23;0.87;;;28.70;39.30;;;;;;5049774;28;20063;-91
2022/08/28 11:00:19;;;;;;;3.80;1.05;;;28.70;38.00;;;;;;5062357;28;20850;-91
2022/08/28 11:03:38;;;;;;;;;;;;;;;;;;;;;
2022/08/28 11:06:33;;;;;;;2.60;0.98;;;28.80;37.40;;;;;;5049450;28;20037;-88
2022/08/28 11:18:52;;;;;;;3.47;1.27;;;28.60;37.60;;;;;;5692899;22;20145;-84
2022/08/28 11:42:09;;;;;;;4.30;1.33;;;28.30;37.90;;;;;;5179582;22;20594;-89
2022/08/28 11:45:00;;;;;;;2.45;1.05;;;28.20;38.40;;;;;;5078834;28;20024;-88
2022/08/28 11:47:44;;;;;;;4.25;1.45;;;28.10;38.10;;;;;;5062187;28;20012;-88
2022/08/28 11:51:01;;;;;;;4.18;1.33;;;28.30;38.10;;;;;;5076646;28;20071;-84
2022/08/28 11:54:20;;;;;;;4.15;1.40;;;28.30;38.30;;;;;;5048401;28;20037;-87
2022/08/28 11:57:08;;;;;;;2.53;0.90;;;28.50;39.00;;;;;;5079543;28;20068;-86
2022/08/28 11:59:54;;;;;;;3.33;1.50;;;28.50;38.90;;;;;;5070642;28;20036;-83
2022/08/28 12:02:38;;;;;;;2.42;1.15;;;28.50;38.00;;;;;;5072465;28;20024;-90
2022/08/28 12:12:23;;;;;;;2.78;1.08;;;28.80;37.50;;;;;;5076081;28;20032;-90
2022/08/28 12:40:51;;;;;;;3.38;1.27;;;28.90;36.80;;;;;;4942665;28;20039;-81
2022/08/28 13:15:09;;;;;;;2.42;0.90;;;28.30;34.80;;;;;;6138157;22;20016;-87
2022/08/28 13:21:24;;;;;;;1.83;0.80;;;28.30;35.20;;;;;;4984192;28;20061;-88
2022/08/28 13:24:00;;;;;;;4.07;1.23;;;28.50;35.20;;;;;;4986457;28;20450;-86
2022/08/28 13:33:34;;;;;;;2.05;1.00;;;28.80;36.50;;;;;;4974214;28;20042;-87
2022/08/28 13:40:28;;;;;;;2.28;0.93;;;28.80;35.80;;;;;;5003206;28;20116;-86
2022/08/28 13:46:42;;;;;;;2.30;0.73;;;28.60;35.60;;;;;;5035626;28;20030;-86
2022/08/28 14:17:25;;;;;;;1.98;1.02;;;29.00;35.50;;;;;;4823065;29;20077;-83
2022/08/28 14:19:51;;;;;;;2.13;0.80;;;29.20;35.50;;;;;;4807339;29;20074;-81
2022/08/28 14:22:16;;;;;;;2.92;1.20;;;29.20;34.90;;;;;;4966862;28;20039;-81
2022/08/28 14:24:42;;;;;;;3.85;1.00;;;29.30;34.80;;;;;;5044025;28;20465;-69
2022/08/28 14:27:08;;;;;;;1.50;0.80;;;29.20;34.90;;;;;;5051611;28;20025;-70
2022/08/28 14:29:35;;;;;;;2.33;1.00;;;29.10;35.50;;;;;;5051536;28;20510;-71
2022/08/28 14:32:00;;;;;;;2.05;1.08;;;28.90;36.10;;;;;;5044148;28;20025;-69
2022/08/28 14:34:27;;;;;;;2.13;0.90;;;28.80;36.50;;;;;;5053803;28;20047;-69
2022/08/28 14:36:56;;;;;;;2.80;1.40;;;28.70;36.00;;;;;;5050591;28;20036;-70
2022/08/28 14:39:24;;;;;;;2.85;1.17;;;28.60;35.80;;;;;;5042610;28;20029;-72
2022/08/28 14:41:50;;;;;;;2.50;1.00;;;28.50;36.70;;;;;;5039510;28;20281;-72
2022/08/28 14:44:17;;;;;;;2.03;0.93;;;28.50;36.20;;;;;;5055920;28;20032;-69
2022/08/28 14:46:46;;;;;;;2.95;0.98;;;28.60;36.40;;;;;;5049387;28;20025;-70
2022/08/28 14:49:14;;;;;;;3.45;1.05;;;28.60;35.90;;;;;;5039017;28;20494;-70
2022/08/28 14:51:41;;;;;;;3.03;0.80;;;28.50;35.50;;;;;;5038645;28;20021;-69
2022/08/28 14:54:08;;;;;;;2.35;1.25;;;28.50;36.00;;;;;;5051364;28;20383;-68
2022/08/28 14:56:34;;;;;;;1.80;0.82;;;28.50;34.80;;;;;;5052478;28;20032;-70
2022/08/28 14:59:01;;;;;;;3.67;1.00;;;28.50;35.60;;;;;;5038779;28;20029;-71
2022/08/28 15:01:28;;;;;;;3.28;0.98;;;28.60;35.70;;;;;;5051840;28;20053;-68
2022/08/28 15:03:55;;;;;;;3.83;1.10;;;28.60;35.80;;;;;;5042988;28;20052;-67
2022/08/28 15:06:20;;;;;;;2.00;1.00;;;28.60;35.50;;;;;;5044557;28;20500;-69
2022/08/28 15:08:46;;;;;;;2.58;1.00;;;28.60;35.90;;;;;;5028049;28;20091;-70
2022/08/28 15:11:15;;;;;;;2.03;1.00;;;28.50;34.90;;;;;;5043429;28;20033;-70
2022/08/28 15:13:43;;;;;;;5.20;1.00;;;28.40;35.00;;;;;;5058686;28;20044;-70
2022/08/28 15:16:16;;;;;;;1.73;1.10;;;28.30;35.90;;;;;;5046208;28;21048;-70
2022/08/28 15:18:43;;;;;;;2.60;1.00;;;28.30;36.60;;;;;;5038498;28;20481;-71
2022/08/28 15:21:22;;;;;;;2.83;0.93;;;28.10;36.40;;;;;;5038401;28;20036;-70
2022/08/28 15:23:53;;;;;;;1.97;1.27;;;28.00;36.80;;;;;;5038530;28;20021;-71
2022/08/28 15:26:21;;;;;;;2.50;1.20;;;27.80;37.10;;;;;;5038361;28;20332;-71
2022/08/28 15:28:47;;;;;;;2.00;1.65;;;27.60;37.10;;;;;;5038812;28;20034;-70
2022/08/28 15:31:14;;;;;;;2.33;1.33;;;27.70;37.80;;;;;;5038143;28;20071;-70
2022/08/28 15:33:40;;;;;;;4.63;1.10;;;27.70;37.20;;;;;;5027740;28;20036;-71
2022/08/28 15:36:06;;;;;;;3.00;1.30;;;27.70;37.10;;;;;;5040066;28;20499;-70